createdAt,value
2019-02-20T00:00:08.252Z,3.83
2019-02-20T00:02:36.656Z,4.70
2019-02-20T00:05:05.856Z,4.53
2019-02-20T00:07:34.306Z,3.80
2019-02-20T00:10:02.741Z,7.65
2019-02-20T00:12:31.137Z,7.35
2019-02-20T00:14:59.204Z,6.75
2019-02-20T00:17:27.646Z,8.20
2019-02-20T00:19:56.034Z,4.87
2019-02-20T00:22:24.435Z,7.10
2019-02-20T00:24:52.838Z,8.45
2019-02-20T00:27:21.247Z,8.20
2019-02-20T00:29:49.639Z,7.37
2019-02-20T00:32:17.725Z,7.45
2019-02-20T00:34:46.168Z,6.40
2019-02-20T00:37:14.250Z,5.62
2019-02-20T00:39:42.641Z,6.92
2019-02-20T00:42:10.715Z,5.10
2019-02-20T00:44:40.757Z,8.15
2019-02-20T00:47:19.245Z,9.23
2019-02-20T00:49:47.909Z,6.10
2019-02-20T00:52:23.912Z,6.45
2019-02-20T00:54:52.362Z,7.42
2019-02-20T00:57:20.772Z,5.90
2019-02-20T00:59:49.203Z,5.15
2019-02-20T01:02:17.596Z,6.83
2019-02-20T01:04:46.010Z,5.95
2019-02-20T01:07:14.475Z,4.42
2019-02-20T01:09:42.888Z,4.28
2019-02-20T01:12:30.626Z,5.72
2019-02-20T01:14:59.020Z,5.03
2019-02-20T01:17:27.084Z,4.47
2019-02-20T01:19:55.585Z,5.42
2019-02-20T01:22:24.003Z,4.97
2019-02-20T01:24:52.399Z,5.28
2019-02-20T01:27:20.792Z,5.15
2019-02-20T01:29:49.191Z,3.45
2019-02-20T01:32:17.604Z,5.15
2019-02-20T01:34:45.695Z,13.60
2019-02-20T01:37:33.432Z,5.17
2019-02-20T01:40:01.838Z,5.62
2019-02-20T01:42:30.006Z,6.28
2019-02-20T01:44:58.417Z,7.08
2019-02-20T01:47:26.808Z,5.62
2019-02-20T01:49:55.218Z,5.95
2019-02-20T01:52:23.322Z,4.72
2019-02-20T01:54:51.717Z,5.22
2019-02-20T01:57:20.114Z,5.42
2019-02-20T01:59:48.568Z,5.25
2019-02-20T02:02:17.026Z,6.17
2019-02-20T02:04:45.445Z,5.87
2019-02-20T02:07:13.833Z,4.72
2019-02-20T02:09:42.240Z,5.78
2019-02-20T02:12:10.632Z,4.57
2019-02-20T02:14:39.036Z,5.62
2019-02-20T02:17:07.419Z,4.22
2019-02-20T02:19:35.830Z,5.05
2019-02-20T02:22:04.217Z,7.45
2019-02-20T02:24:32.367Z,5.22
2019-02-20T02:27:00.768Z,5.42
2019-02-20T02:29:28.874Z,8.78
2019-02-20T02:31:57.317Z,5.03
2019-02-20T02:34:25.704Z,6.42
2019-02-20T02:36:54.116Z,7.40
2019-02-20T02:39:22.553Z,9.28
2019-02-20T02:41:50.952Z,7.10
2019-02-20T02:44:19.404Z,6.30
2019-02-20T02:46:47.864Z,8.10
2019-02-20T02:49:16.301Z,6.70
2019-02-20T02:51:44.698Z,7.12
2019-02-20T02:54:13.133Z,8.20
2019-02-20T02:56:41.200Z,6.90
2019-02-20T02:59:09.379Z,6.53
2019-02-20T03:01:37.792Z,7.78
2019-02-20T03:04:06.176Z,9.33
2019-02-20T03:06:34.628Z,9.80
2019-02-20T03:09:04.943Z,9.33
2019-02-20T03:11:33.378Z,5.78
2019-02-20T03:14:01.780Z,11.50
2019-02-20T03:16:30.226Z,8.08
2019-02-20T03:18:58.620Z,8.63
2019-02-20T03:21:27.020Z,8.60
2019-02-20T03:23:55.415Z,8.73
2019-02-20T03:26:23.822Z,8.20
2019-02-20T03:28:51.893Z,9.28
2019-02-20T03:31:20.300Z,10.03
2019-02-20T03:33:48.970Z,6.37
2019-02-20T03:36:17.041Z,7.35
2019-02-20T03:38:45.443Z,9.43
2019-02-20T03:41:13.875Z,10.13
2019-02-20T03:43:42.283Z,10.93
2019-02-20T03:46:10.745Z,8.65
2019-02-20T03:48:39.195Z,10.00
2019-02-20T03:51:07.369Z,7.62
2019-02-20T03:53:35.761Z,7.00
2019-02-20T03:56:04.296Z,8.45
2019-02-20T03:58:33.355Z,7.80
2019-02-20T04:01:02.121Z,12.60
2019-02-20T04:03:30.636Z,7.58
2019-02-20T04:05:59.063Z,7.55
2019-02-20T04:08:27.469Z,8.13
2019-02-20T04:10:55.865Z,6.67
2019-02-20T04:13:23.980Z,7.67
2019-02-20T04:15:52.363Z,7.60
2019-02-20T04:18:20.783Z,7.67
2019-02-20T04:21:08.615Z,5.90
2019-02-20T04:23:37.008Z,9.65
2019-02-20T04:26:05.598Z,8.30
2019-02-20T04:28:34.004Z,10.20
2019-02-20T04:31:02.408Z,7.60
2019-02-20T04:33:30.869Z,6.85
2019-02-20T04:35:59.362Z,6.17
2019-02-20T04:38:27.774Z,8.33
2019-02-20T04:40:56.325Z,10.32
2019-02-20T04:43:24.721Z,8.73
2019-02-20T04:45:52.811Z,6.03
2019-02-20T04:48:21.199Z,6.37
2019-02-20T04:50:49.591Z,10.13
2019-02-20T04:53:17.995Z,8.70
2019-02-20T04:55:46.391Z,8.78
2019-02-20T04:58:18.092Z,7.42
2019-02-20T05:00:46.484Z,7.37
2019-02-20T05:03:14.904Z,7.73
2019-02-20T05:05:42.999Z,9.13
2019-02-20T05:08:11.482Z,8.30
2019-02-20T05:10:40.217Z,6.67
2019-02-20T05:13:08.637Z,6.42
2019-02-20T05:15:37.077Z,10.03
2019-02-20T05:18:05.510Z,8.70
2019-02-20T05:20:34.083Z,9.93
2019-02-20T05:23:02.519Z,12.90
2019-02-20T05:25:30.910Z,8.13
2019-02-20T05:27:59.334Z,9.10
2019-02-20T05:30:27.376Z,8.57
2019-02-20T05:32:55.458Z,8.37
2019-02-20T05:35:23.567Z,10.35
2019-02-20T05:37:51.975Z,10.40
2019-02-20T05:40:20.407Z,6.77
2019-02-20T05:42:48.824Z,8.28
2019-02-20T05:45:17.205Z,6.65
2019-02-20T05:47:45.651Z,7.62
2019-02-20T05:50:14.040Z,9.30
2019-02-20T05:52:42.852Z,8.37
2019-02-20T05:55:11.401Z,7.17
2019-02-20T05:57:39.793Z,12.23
2019-02-20T06:00:09.644Z,11.07
2019-02-20T06:02:37.707Z,8.63
2019-02-20T06:05:06.561Z,10.82
2019-02-20T06:07:34.958Z,6.42
2019-02-20T06:10:03.906Z,8.97
2019-02-20T06:12:32.338Z,10.20
2019-02-20T06:15:00.781Z,8.03
2019-02-20T06:17:29.212Z,7.83
2019-02-20T06:19:57.654Z,9.90
2019-02-20T06:22:26.039Z,7.28
2019-02-20T06:24:54.480Z,11.87
2019-02-20T06:27:22.932Z,13.32
2019-02-20T06:29:51.012Z,11.75
2019-02-20T06:32:19.410Z,11.10
2019-02-20T06:34:47.822Z,6.83
2019-02-20T06:37:16.217Z,9.07
2019-02-20T06:39:44.620Z,10.23
2019-02-20T06:42:13.063Z,10.03
2019-02-20T06:44:41.570Z,9.00
2019-02-20T06:47:09.833Z,9.43
2019-02-20T06:49:39.968Z,9.80
2019-02-20T06:52:08.078Z,9.60
2019-02-20T06:54:36.520Z,8.73
2019-02-20T06:57:04.909Z,11.47
2019-02-20T06:59:33.352Z,12.10
2019-02-20T07:02:01.434Z,8.83
2019-02-20T07:04:29.836Z,12.28
2019-02-20T07:06:59.441Z,9.30
2019-02-20T07:09:54.970Z,14.93
2019-02-20T07:12:28.989Z,9.93
2019-02-20T07:15:06.035Z,12.20
2019-02-20T07:17:46.266Z,12.25
2019-02-20T07:20:38.692Z,9.47
2019-02-20T07:23:22.380Z,12.05
2019-02-20T07:26:10.576Z,12.88
2019-02-20T07:28:59.920Z,11.13
2019-02-20T07:31:28.320Z,9.63
2019-02-20T07:33:56.712Z,9.37
2019-02-20T07:36:25.195Z,10.15
2019-02-20T07:38:53.260Z,10.30
2019-02-20T07:41:21.663Z,9.20
2019-02-20T07:43:50.061Z,9.65
2019-02-20T07:46:18.549Z,11.00
2019-02-20T07:48:46.941Z,12.98
2019-02-20T07:51:15.411Z,10.93
2019-02-20T07:53:43.472Z,10.78
2019-02-20T07:56:11.880Z,13.65
2019-02-20T07:58:40.280Z,11.57
2019-02-20T08:01:08.688Z,13.20
2019-02-20T08:03:37.108Z,10.45
2019-02-20T08:06:05.502Z,12.53
2019-02-20T08:08:33.947Z,10.58
2019-02-20T08:11:02.399Z,10.85
2019-02-20T08:13:39.152Z,9.95
2019-02-20T08:16:00.974Z,8.55
2019-02-20T08:18:29.374Z,10.35
2019-02-20T08:20:57.814Z,8.08
2019-02-20T08:23:26.209Z,10.50
2019-02-20T08:25:54.652Z,11.78
2019-02-20T08:28:23.043Z,10.95
2019-02-20T08:30:51.450Z,12.50
2019-02-20T08:33:19.877Z,11.28
2019-02-20T08:35:48.316Z,10.90
2019-02-20T08:38:16.720Z,10.28
2019-02-20T08:40:45.120Z,9.20
2019-02-20T08:43:13.536Z,9.73
2019-02-20T08:45:42.004Z,10.00
2019-02-20T08:48:10.446Z,9.20
2019-02-20T08:50:38.583Z,7.72
2019-02-20T08:53:06.984Z,11.18
2019-02-20T08:55:35.048Z,8.03
2019-02-20T08:58:03.457Z,11.57
2019-02-20T09:00:32.020Z,8.93
2019-02-20T09:03:00.432Z,14.20
2019-02-20T09:05:28.870Z,9.38
2019-02-20T09:07:57.274Z,10.78
2019-02-20T09:10:25.677Z,13.48
2019-02-20T09:12:54.264Z,11.60
2019-02-20T09:15:22.698Z,15.20
2019-02-20T09:17:51.103Z,15.95
2019-02-20T09:20:19.534Z,12.10
2019-02-20T09:22:47.976Z,19.23
2019-02-20T09:25:19.841Z,15.35
2019-02-20T09:27:46.373Z,14.50
2019-02-20T09:30:15.850Z,13.08
2019-02-20T09:32:44.249Z,15.60
2019-02-20T09:35:13.131Z,15.50
2019-02-20T09:37:41.532Z,14.35
2019-02-20T09:40:11.147Z,14.87
2019-02-20T09:42:40.055Z,18.23
2019-02-20T09:45:09.519Z,15.63
2019-02-20T09:47:37.934Z,17.35
2019-02-20T09:50:08.273Z,20.77
2019-02-20T09:52:36.734Z,16.73
2019-02-20T09:55:08.112Z,16.05
2019-02-20T09:57:36.505Z,18.45
2019-02-20T10:00:08.027Z,13.80
2019-02-20T10:02:36.424Z,17.55
2019-02-20T10:05:06.572Z,19.80
2019-02-20T10:07:34.978Z,14.38
2019-02-20T10:10:03.876Z,17.50
2019-02-20T10:12:32.317Z,17.67
2019-02-20T10:15:00.774Z,16.35
2019-02-20T10:17:29.169Z,16.37
2019-02-20T10:19:57.599Z,15.68
2019-02-20T10:22:26.069Z,17.57
2019-02-20T10:24:54.480Z,15.23
2019-02-20T10:27:22.939Z,20.62
2019-02-20T10:29:51.344Z,16.82
2019-02-20T10:32:19.750Z,19.62
2019-02-20T10:34:48.199Z,18.00
2019-02-20T10:37:16.681Z,18.32
2019-02-20T10:39:45.103Z,17.05
2019-02-20T10:42:13.195Z,15.05
2019-02-20T10:44:41.627Z,23.92
2019-02-20T10:47:09.752Z,18.52
2019-02-20T10:49:38.152Z,15.35
2019-02-20T10:52:06.570Z,17.00
2019-02-20T10:54:34.988Z,23.83
2019-02-20T10:57:03.402Z,18.37
2019-02-20T10:59:31.854Z,17.32
2019-02-20T11:02:00.296Z,14.15
2019-02-20T11:04:28.748Z,19.75
2019-02-20T11:06:57.211Z,16.23
2019-02-20T11:09:25.628Z,17.92
2019-02-20T11:11:54.504Z,20.45
2019-02-20T11:14:23.232Z,19.30
2019-02-20T11:16:51.636Z,15.50
2019-02-20T11:19:20.048Z,18.05
2019-02-20T11:21:48.472Z,15.40
2019-02-20T11:24:17.934Z,16.20
2019-02-20T11:26:54.760Z,14.70
2019-02-20T11:29:16.749Z,14.00
2019-02-20T11:31:45.150Z,15.50
2019-02-20T11:34:13.552Z,17.35
2019-02-20T11:36:41.968Z,10.68
2019-02-20T11:39:11.699Z,10.00
2019-02-20T11:41:40.389Z,13.53
2019-02-20T11:44:08.796Z,9.43
2019-02-20T11:46:37.204Z,9.38
2019-02-20T11:49:05.281Z,11.43
2019-02-20T11:51:33.779Z,10.15
2019-02-20T11:54:01.828Z,9.60
2019-02-20T11:56:30.246Z,11.65
2019-02-20T11:58:58.645Z,8.43
2019-02-20T12:01:27.059Z,9.30
2019-02-20T12:03:55.458Z,7.37
2019-02-20T12:06:23.916Z,10.38
2019-02-20T12:08:52.321Z,10.82
2019-02-20T12:11:20.753Z,14.50
2019-02-20T12:13:49.196Z,11.75
2019-02-20T12:16:17.605Z,12.33
2019-02-20T12:18:46.008Z,11.65
2019-02-20T12:21:14.494Z,18.27
2019-02-20T12:23:42.903Z,11.70
2019-02-20T12:26:11.359Z,11.33
2019-02-20T12:28:39.767Z,13.85
2019-02-20T12:31:08.103Z,11.15
2019-02-20T12:33:36.542Z,17.48
2019-02-20T12:36:05.013Z,12.80
2019-02-20T12:38:33.420Z,14.45
2019-02-20T12:41:01.828Z,11.00
2019-02-20T12:43:30.235Z,11.35
2019-02-20T12:45:58.639Z,12.80
2019-02-20T12:48:27.212Z,12.95
2019-02-20T12:50:55.603Z,15.55
2019-02-20T12:53:24.056Z,12.85
2019-02-20T12:55:52.457Z,14.15
2019-02-20T12:58:20.550Z,13.30
2019-02-20T13:00:48.941Z,14.68
2019-02-20T13:03:17.360Z,17.77
2019-02-20T13:05:45.802Z,16.07
2019-02-20T13:08:14.311Z,11.55
2019-02-20T13:10:42.926Z,14.05
2019-02-20T13:13:11.342Z,11.73
2019-02-20T13:15:39.736Z,9.88
2019-02-20T13:18:08.212Z,11.03
2019-02-20T13:20:36.664Z,15.25
2019-02-20T13:23:05.074Z,12.75
2019-02-20T13:25:33.574Z,15.75
2019-02-20T13:28:01.984Z,11.73
2019-02-20T13:30:30.484Z,11.55
2019-02-20T13:32:58.623Z,9.70
2019-02-20T13:35:27.031Z,10.78
2019-02-20T13:37:55.437Z,11.08
2019-02-20T13:40:23.836Z,10.95
2019-02-20T13:42:52.380Z,13.53
2019-02-20T13:45:20.462Z,17.30
2019-02-20T13:47:48.954Z,14.98
2019-02-20T13:50:17.237Z,17.75
2019-02-20T13:52:52.000Z,18.80
2019-02-20T13:55:15.937Z,16.85
2019-02-20T13:57:44.353Z,19.55
2019-02-20T14:00:13.548Z,20.25
2019-02-20T14:02:42.120Z,23.52
2019-02-20T14:05:10.603Z,21.57
2019-02-20T14:07:39.638Z,20.92
2019-02-20T14:10:12.551Z,19.80
2019-02-20T14:12:41.034Z,19.00
2019-02-20T14:15:11.582Z,21.45
2019-02-20T14:17:40.072Z,23.87
2019-02-20T14:20:10.612Z,17.92
2019-02-20T14:22:39.801Z,23.18
2019-02-20T14:25:10.040Z,21.48
2019-02-20T14:27:38.552Z,20.48
2019-02-20T14:30:11.717Z,17.92
2019-02-20T14:32:40.251Z,18.60
2019-02-20T14:35:10.934Z,17.50
2019-02-20T14:37:39.618Z,21.27
2019-02-20T14:40:09.388Z,20.70
2019-02-20T14:42:37.528Z,19.32
2019-02-20T14:45:12.153Z,24.45
2019-02-20T14:47:40.221Z,18.80
2019-02-20T14:50:10.583Z,25.32
2019-02-20T14:52:39.593Z,22.60
2019-02-20T14:55:11.240Z,20.85
2019-02-20T14:57:39.683Z,26.20
2019-02-20T15:00:13.256Z,21.37
2019-02-20T15:02:41.659Z,20.68
2019-02-20T15:05:11.997Z,24.95
2019-02-20T15:07:40.260Z,20.80
2019-02-20T15:10:09.863Z,19.07
2019-02-20T15:12:38.328Z,24.65
2019-02-20T15:15:10.837Z,19.23
2019-02-20T15:17:39.515Z,22.27
2019-02-20T15:20:11.100Z,19.57
2019-02-20T15:22:39.975Z,20.48
2019-02-20T15:25:09.965Z,18.45
2019-02-20T15:27:38.435Z,16.57
2019-02-20T15:30:10.181Z,15.83
2019-02-20T15:32:38.584Z,19.92
2019-02-20T15:35:07.811Z,13.95
2019-02-20T15:37:36.406Z,8.98
2019-02-20T15:40:07.129Z,13.48
2019-02-20T15:42:35.192Z,9.45
2019-02-20T15:45:04.573Z,9.83
2019-02-20T15:47:32.968Z,12.37
2019-02-20T15:50:01.376Z,13.68
2019-02-20T15:52:30.356Z,11.15
2019-02-20T15:54:58.764Z,11.08
2019-02-20T15:57:27.207Z,11.53
2019-02-20T15:59:55.696Z,13.58
2019-02-20T16:02:24.209Z,10.23
2019-02-20T16:04:52.668Z,9.80
2019-02-20T16:07:21.063Z,11.83
2019-02-20T16:09:50.093Z,10.05
2019-02-20T16:12:18.598Z,11.75
2019-02-20T16:14:47.026Z,11.63
2019-02-20T16:17:15.099Z,10.68
2019-02-20T16:19:43.533Z,7.83
2019-02-20T16:22:12.048Z,13.25
2019-02-20T16:24:40.562Z,15.58
2019-02-20T16:27:09.343Z,10.13
2019-02-20T16:29:37.736Z,7.65
2019-02-20T16:32:06.141Z,11.00
2019-02-20T16:34:34.620Z,11.22
2019-02-20T16:37:02.743Z,11.08
2019-02-20T16:39:31.184Z,11.12
2019-02-20T16:41:59.663Z,13.35
2019-02-20T16:44:28.437Z,11.38
2019-02-20T16:46:56.851Z,12.23
2019-02-20T16:49:25.244Z,16.15
2019-02-20T16:51:53.660Z,13.20
2019-02-20T16:54:22.096Z,10.23
2019-02-20T16:56:50.544Z,12.33
2019-02-20T16:59:18.939Z,12.98
2019-02-20T17:01:47.624Z,13.43
2019-02-20T17:04:16.035Z,12.43
2019-02-20T17:06:44.444Z,12.55
2019-02-20T17:09:12.964Z,13.30
2019-02-20T17:11:42.326Z,13.85
2019-02-20T17:14:10.730Z,12.85
2019-02-20T17:16:39.581Z,12.15
2019-02-20T17:19:08.020Z,11.75
2019-02-20T17:21:36.427Z,11.70
2019-02-20T17:24:04.933Z,13.15
2019-02-20T17:26:33.451Z,9.98
2019-02-20T17:29:01.958Z,10.88
2019-02-20T17:31:30.106Z,10.80
2019-02-20T17:33:58.880Z,11.55
2019-02-20T17:36:27.323Z,10.63
2019-02-20T17:38:55.750Z,16.42
2019-02-20T17:41:24.219Z,13.28
2019-02-20T17:43:52.742Z,13.93
2019-02-20T17:46:21.377Z,14.73
2019-02-20T17:48:49.775Z,11.75
2019-02-20T17:51:18.168Z,8.68
2019-02-20T17:53:46.571Z,12.85
2019-02-20T17:56:14.968Z,7.80
2019-02-20T17:58:43.405Z,12.37
2019-02-20T18:01:13.773Z,11.60
2019-02-20T18:03:43.936Z,9.95
2019-02-20T18:06:12.344Z,10.18
2019-02-20T18:08:40.432Z,12.85
2019-02-20T18:11:08.829Z,16.07
2019-02-20T18:13:37.235Z,12.13
2019-02-20T18:16:05.633Z,12.60
2019-02-20T18:18:34.048Z,12.10
2019-02-20T18:21:02.446Z,13.20
2019-02-20T18:23:30.854Z,7.97
2019-02-20T18:25:59.250Z,9.50
2019-02-20T18:28:27.656Z,11.88
2019-02-20T18:30:56.049Z,7.80
2019-02-20T18:33:24.467Z,10.00
2019-02-20T18:35:52.863Z,12.70
2019-02-20T18:38:21.266Z,10.30
2019-02-20T18:40:49.331Z,9.35
2019-02-20T18:43:17.742Z,10.80
2019-02-20T18:45:46.246Z,7.75
2019-02-20T18:48:14.699Z,6.12
2019-02-20T18:50:43.120Z,7.42
2019-02-20T18:53:11.515Z,6.62
2019-02-20T18:55:39.597Z,4.40
2019-02-20T18:58:07.997Z,7.67
2019-02-20T19:00:36.411Z,5.40
2019-02-20T19:03:05.235Z,6.28
2019-02-20T19:05:33.839Z,5.42
2019-02-20T19:08:05.564Z,9.08
2019-02-20T19:10:37.028Z,10.45
2019-02-20T19:13:23.419Z,6.45
2019-02-20T19:16:10.080Z,6.08
2019-02-20T19:19:02.903Z,8.58
2019-02-20T19:21:40.068Z,8.10
2019-02-20T19:24:29.617Z,7.95
2019-02-20T19:27:19.843Z,9.70
2019-02-20T19:30:18.044Z,10.18
2019-02-20T19:32:47.693Z,8.30
2019-02-20T19:35:45.772Z,8.73
2019-02-20T19:38:17.298Z,14.50
2019-02-20T19:40:57.424Z,7.33
2019-02-20T19:43:43.674Z,7.58
2019-02-20T19:46:45.193Z,9.45
2019-02-20T19:49:34.731Z,8.63
2019-02-20T19:52:39.108Z,6.80
2019-02-20T19:55:13.135Z,8.78
2019-02-20T19:57:59.800Z,8.53
2019-02-20T20:00:47.235Z,12.28
2019-02-20T20:03:30.504Z,9.03
2019-02-20T20:06:01.989Z,11.48
2019-02-20T20:08:42.648Z,9.50
2019-02-20T20:11:44.207Z,8.65
2019-02-20T20:14:09.560Z,8.88
2019-02-20T20:16:59.291Z,12.45
2019-02-20T20:19:48.846Z,7.30
2019-02-20T20:22:46.035Z,9.50
2019-02-20T20:25:29.210Z,7.78
2019-02-20T20:28:08.378Z,9.20
2019-02-20T20:30:58.174Z,8.25
2019-02-20T20:33:54.965Z,5.08
2019-02-20T20:36:35.409Z,9.03
2019-02-20T20:39:21.442Z,10.00
2019-02-20T20:41:58.845Z,11.83
2019-02-20T20:44:37.367Z,6.20
2019-02-20T20:47:11.524Z,11.08
2019-02-20T20:49:58.294Z,11.22
2019-02-20T20:52:35.778Z,11.48
2019-02-20T20:55:39.161Z,17.00
2019-02-20T20:58:35.930Z,14.45
2019-02-20T21:01:10.327Z,16.07
2019-02-20T21:03:56.148Z,12.37
2019-02-20T21:07:06.533Z,14.10
2019-02-20T21:09:55.503Z,12.17
2019-02-20T21:12:27.035Z,11.10
2019-02-20T21:15:04.112Z,11.37
2019-02-20T21:17:41.068Z,13.10
2019-02-20T21:20:34.864Z,10.10
2019-02-20T21:23:12.314Z,10.33
2019-02-20T21:26:16.885Z,7.60
2019-02-20T21:28:48.360Z,7.40
2019-02-20T21:31:22.820Z,9.30
2019-02-20T21:34:19.798Z,7.93
2019-02-20T21:36:56.733Z,9.73
2019-02-20T21:39:31.278Z,6.97
2019-02-20T21:42:08.308Z,7.73
2019-02-20T21:45:00.767Z,9.03
2019-02-20T21:47:44.289Z,11.70
2019-02-20T21:50:18.272Z,16.93
2019-02-20T21:52:49.762Z,10.70
2019-02-20T21:55:37.714Z,9.80
2019-02-20T21:58:23.590Z,8.85
2019-02-20T22:00:58.936Z,8.43
2019-02-20T22:03:42.442Z,7.70
2019-02-20T22:06:29.079Z,11.20
2019-02-20T22:09:00.594Z,9.70
2019-02-20T22:11:51.215Z,9.13
2019-02-20T22:14:31.452Z,11.67
2019-02-20T22:17:28.540Z,13.65
2019-02-20T22:19:58.353Z,8.27
2019-02-20T22:22:41.690Z,7.80
2019-02-20T22:25:33.959Z,10.80
2019-02-20T22:28:23.769Z,10.47
2019-02-20T22:31:04.364Z,8.20
2019-02-20T22:33:47.936Z,10.77
2019-02-20T22:36:26.550Z,14.65
2019-02-20T22:39:09.495Z,12.23
2019-02-20T22:42:06.696Z,8.53
2019-02-20T22:44:38.180Z,9.77
2019-02-20T22:47:22.767Z,10.47
2019-02-20T22:50:00.357Z,8.57
2019-02-20T22:52:34.431Z,9.10
2019-02-20T22:55:06.986Z,8.10
2019-02-20T22:57:47.037Z,10.60
2019-02-20T23:00:42.870Z,10.70
2019-02-20T23:03:32.157Z,12.40
2019-02-20T23:06:27.843Z,10.37
2019-02-20T23:09:14.537Z,12.00
2019-02-20T23:12:02.885Z,9.53
2019-02-20T23:14:32.543Z,11.90
2019-02-20T23:17:00.611Z,8.80
2019-02-20T23:19:29.015Z,8.37
2019-02-20T23:21:57.404Z,9.43
2019-02-20T23:24:25.808Z,7.70
2019-02-20T23:26:54.238Z,7.97
2019-02-20T23:29:22.410Z,7.87
2019-02-20T23:31:50.803Z,7.27
2019-02-20T23:34:18.915Z,7.13
2019-02-20T23:36:47.300Z,5.90
2019-02-20T23:39:15.705Z,6.67
2019-02-20T23:41:43.775Z,9.97
2019-02-20T23:44:12.185Z,6.97
2019-02-20T23:46:59.920Z,7.30
2019-02-20T23:49:28.324Z,6.40
2019-02-20T23:51:56.447Z,9.00
2019-02-20T23:54:25.065Z,12.53
2019-02-20T23:56:53.605Z,7.30
2019-02-20T23:59:22.020Z,7.30
